createdAt,value
2023-04-18T00:00:42.162Z,5.50
2023-04-18T00:03:09.518Z,5.40
2023-04-18T00:05:36.679Z,5.40
2023-04-18T00:08:03.713Z,5.40
2023-04-18T00:10:30.398Z,5.40
2023-04-18T00:12:58.157Z,5.50
2023-04-18T00:15:25.723Z,5.40
2023-04-18T00:17:56.259Z,5.40
2023-04-18T00:20:26.648Z,5.30
2023-04-18T00:22:54.892Z,5.30
2023-04-18T00:25:21.680Z,5.30
2023-04-18T00:27:48.350Z,5.30
2023-04-18T00:30:15.299Z,5.30
2023-04-18T00:32:41.981Z,5.30
2023-04-18T00:35:08.888Z,5.30
2023-04-18T00:37:35.516Z,5.30
2023-04-18T00:40:02.125Z,5.40
2023-04-18T00:42:29.322Z,5.40
2023-04-18T00:44:56.195Z,5.40
2023-04-18T00:47:22.949Z,5.40
2023-04-18T00:49:49.871Z,5.40
2023-04-18T00:52:18.310Z,5.40
2023-04-18T00:54:45.231Z,5.40
2023-04-18T00:57:12.803Z,5.40
2023-04-18T00:59:39.727Z,5.50
2023-04-18T01:02:07.994Z,5.50
2023-04-18T01:04:34.886Z,5.50
2023-04-18T01:07:02.364Z,5.50
2023-04-18T01:09:29.492Z,5.50
2023-04-18T01:11:56.496Z,5.50
2023-04-18T01:14:23.855Z,5.60
2023-04-18T01:16:50.536Z,5.60
2023-04-18T01:19:19.485Z,5.60
2023-04-18T01:21:46.142Z,5.60
2023-04-18T01:24:17.647Z,5.60
2023-04-18T01:26:49.539Z,5.60
2023-04-18T01:29:16.377Z,5.60
2023-04-18T01:31:43.264Z,5.60
2023-04-18T01:34:10.043Z,5.50
2023-04-18T01:36:38.349Z,5.60
2023-04-18T01:39:05.242Z,5.60
2023-04-18T01:41:32.566Z,5.60
2023-04-18T01:43:59.815Z,5.60
2023-04-18T01:46:26.889Z,5.60
2023-04-18T01:48:53.912Z,5.60
2023-04-18T01:51:21.401Z,5.60
2023-04-18T01:53:48.231Z,5.60
2023-04-18T01:56:14.877Z,5.60
2023-04-18T01:58:41.658Z,5.50
2023-04-18T02:01:08.679Z,5.50
2023-04-18T02:03:35.656Z,5.50
2023-04-18T02:06:03.690Z,5.50
2023-04-18T02:08:32.828Z,5.50
2023-04-18T02:11:01.126Z,5.40
2023-04-18T02:13:28.128Z,5.40
2023-04-18T02:15:54.762Z,5.40
2023-04-18T02:18:24.586Z,5.40
2023-04-18T02:20:51.817Z,5.30
2023-04-18T02:23:18.819Z,5.30
2023-04-18T02:25:45.735Z,5.40
2023-04-18T02:28:12.418Z,5.40
2023-04-18T02:30:39.165Z,5.40
2023-04-18T02:33:06.282Z,5.40
2023-04-18T02:35:32.931Z,5.40
2023-04-18T02:37:59.734Z,5.40
2023-04-18T02:40:26.356Z,5.50
2023-04-18T02:42:52.952Z,5.50
2023-04-18T02:45:19.655Z,5.50
2023-04-18T02:47:54.421Z,5.50
2023-04-18T02:50:23.191Z,5.50
2023-04-18T02:52:50.735Z,5.40
2023-04-18T02:55:19.423Z,5.50
2023-04-18T02:57:46.408Z,5.50
2023-04-18T03:00:31.610Z,5.60
2023-04-18T03:03:08.919Z,5.70
2023-04-18T03:05:40.355Z,5.70
2023-04-18T03:08:07.276Z,5.70
2023-04-18T03:10:35.918Z,5.70
2023-04-18T03:13:03.039Z,5.60
2023-04-18T03:15:33.244Z,5.60
2023-04-18T03:18:00.791Z,5.70
2023-04-18T03:20:31.195Z,5.70
2023-04-18T03:22:57.776Z,5.70
2023-04-18T03:25:26.436Z,5.70
2023-04-18T03:27:53.492Z,5.70
2023-04-18T03:30:22.264Z,5.70
2023-04-18T03:32:55.907Z,5.70
2023-04-18T03:35:22.942Z,5.70
2023-04-18T03:37:50.372Z,5.70
2023-04-18T03:40:30.543Z,5.70
2023-04-18T03:43:02.774Z,5.70
2023-04-18T03:45:29.885Z,5.70
2023-04-18T03:47:56.599Z,5.70
2023-04-18T03:50:25.576Z,5.70
2023-04-18T03:52:54.771Z,5.70
2023-04-18T03:55:21.689Z,5.80
2023-04-18T03:57:48.557Z,5.80
2023-04-18T04:00:23.452Z,5.70
2023-04-18T04:02:57.635Z,5.70
2023-04-18T04:05:24.486Z,5.70
2023-04-18T04:07:51.227Z,5.70
2023-04-18T04:10:18.246Z,5.70
2023-04-18T04:12:45.125Z,5.60
2023-04-18T04:15:12.208Z,5.70
2023-04-18T04:17:45.202Z,5.70
2023-04-18T04:20:12.651Z,5.70
2023-04-18T04:22:39.589Z,5.60
2023-04-18T04:25:07.515Z,5.60
2023-04-18T04:27:38.882Z,5.50
2023-04-18T04:30:08.652Z,5.70
2023-04-18T04:32:35.753Z,5.60
2023-04-18T04:35:02.646Z,5.60
2023-04-18T04:37:29.393Z,5.60
2023-04-18T04:40:19.522Z,5.60
2023-04-18T04:42:54.079Z,5.60
2023-04-18T04:45:26.851Z,5.50
2023-04-18T04:47:53.482Z,5.50
2023-04-18T04:50:21.362Z,5.50
2023-04-18T04:52:48.328Z,5.50
2023-04-18T04:55:15.773Z,5.50
2023-04-18T04:57:44.730Z,5.60
2023-04-18T05:00:37.100Z,5.60
2023-04-18T05:03:03.857Z,5.60
2023-04-18T05:05:30.659Z,5.60
2023-04-18T05:07:57.277Z,5.60
2023-04-18T05:10:23.920Z,5.60
2023-04-18T05:12:50.559Z,5.50
2023-04-18T05:15:18.245Z,5.50
2023-04-18T05:17:45.036Z,5.50
2023-04-18T05:20:12.051Z,5.50
2023-04-18T05:22:38.658Z,5.50
2023-04-18T05:25:05.824Z,5.50
2023-04-18T05:27:32.489Z,5.60
2023-04-18T05:29:59.355Z,5.60
2023-04-18T05:32:25.999Z,5.60
2023-04-18T05:34:52.680Z,5.50
2023-04-18T05:37:19.350Z,5.50
2023-04-18T05:39:46.027Z,5.50
2023-04-18T05:42:12.695Z,5.50
2023-04-18T05:44:39.650Z,5.50
2023-04-18T05:47:06.620Z,5.50
2023-04-18T05:49:33.466Z,5.50
2023-04-18T05:52:00.741Z,5.60
2023-04-18T05:54:27.463Z,5.60
2023-04-18T05:56:55.102Z,5.60
2023-04-18T05:59:21.770Z,5.60
2023-04-18T06:01:49.241Z,5.60
2023-04-18T06:04:16.693Z,5.60
2023-04-18T06:06:43.813Z,5.50
2023-04-18T06:09:10.513Z,5.50
2023-04-18T06:11:37.124Z,5.50
2023-04-18T06:14:03.859Z,5.50
2023-04-18T06:16:30.779Z,5.50
2023-04-18T06:19:00.860Z,5.50
2023-04-18T06:21:27.985Z,5.50
2023-04-18T06:23:54.731Z,5.50
2023-04-18T06:26:21.673Z,5.50
2023-04-18T06:28:48.333Z,5.50
2023-04-18T06:31:15.010Z,5.50
2023-04-18T06:33:42.155Z,5.50
2023-04-18T06:36:09.079Z,5.60
2023-04-18T06:38:35.820Z,5.60
2023-04-18T06:41:02.504Z,5.60
2023-04-18T06:43:29.158Z,5.60
2023-04-18T06:45:56.618Z,5.70
2023-04-18T06:48:23.563Z,5.70
2023-04-18T06:50:50.454Z,5.80
2023-04-18T06:53:17.069Z,5.70
2023-04-18T06:55:43.869Z,5.80
2023-04-18T06:58:13.485Z,5.90
2023-04-18T07:00:40.109Z,5.90
2023-04-18T07:03:11.265Z,5.90
2023-04-18T07:05:39.229Z,6.00
2023-04-18T07:08:06.116Z,6.00
2023-04-18T07:10:32.949Z,6.00
2023-04-18T07:12:59.756Z,6.00
2023-04-18T07:15:26.475Z,6.00
2023-04-18T07:17:53.338Z,6.10
2023-04-18T07:20:20.360Z,6.00
2023-04-18T07:22:49.056Z,6.10
2023-04-18T07:25:15.776Z,6.00
2023-04-18T07:27:42.552Z,6.10
2023-04-18T07:30:10.139Z,6.10
2023-04-18T07:32:36.760Z,6.10
2023-04-18T07:35:04.040Z,6.30
2023-04-18T07:37:31.136Z,6.30
2023-04-18T07:39:58.568Z,6.30
2023-04-18T07:42:25.198Z,6.40
2023-04-18T07:44:58.546Z,6.40
2023-04-18T07:47:28.306Z,6.30
2023-04-18T07:49:56.690Z,6.40
2023-04-18T07:52:23.394Z,6.50
2023-04-18T07:54:50.138Z,6.40
2023-04-18T07:57:17.137Z,6.50
2023-04-18T07:59:43.766Z,6.60
2023-04-18T08:02:10.495Z,6.70
2023-04-18T08:04:37.439Z,6.70
2023-04-18T08:07:04.137Z,6.70
2023-04-18T08:09:30.890Z,6.70
2023-04-18T08:11:59.322Z,6.80
2023-04-18T08:14:25.922Z,6.90
2023-04-18T08:16:52.641Z,6.90
2023-04-18T08:19:19.301Z,7.00
2023-04-18T08:21:45.989Z,7.20
2023-04-18T08:24:12.606Z,7.30
2023-04-18T08:26:39.276Z,7.20
2023-04-18T08:29:06.201Z,7.20
2023-04-18T08:31:32.882Z,7.30
2023-04-18T08:34:00.089Z,7.20
2023-04-18T08:36:27.895Z,7.40
2023-04-18T08:38:54.558Z,7.40
2023-04-18T08:41:23.226Z,7.40
2023-04-18T08:43:50.472Z,7.30
2023-04-18T08:46:17.365Z,7.40
2023-04-18T08:48:44.533Z,7.40
2023-04-18T08:51:11.263Z,7.50
2023-04-18T08:53:39.194Z,7.40
2023-04-18T08:56:10.264Z,7.30
2023-04-18T08:58:37.101Z,7.10
2023-04-18T09:01:03.860Z,7.30
2023-04-18T09:03:39.519Z,7.30
2023-04-18T09:06:15.962Z,7.30
2023-04-18T09:08:43.929Z,7.50
2023-04-18T09:11:31.537Z,7.80
2023-04-18T09:14:02.209Z,7.80
2023-04-18T09:16:44.384Z,7.70
2023-04-18T09:19:13.803Z,7.50
2023-04-18T09:21:44.231Z,7.40
2023-04-18T09:24:32.709Z,7.30
2023-04-18T09:27:01.086Z,7.30
2023-04-18T09:29:46.772Z,7.40
2023-04-18T09:32:29.267Z,7.40
2023-04-18T09:35:04.026Z,7.50
2023-04-18T09:37:31.481Z,7.60
2023-04-18T09:39:58.390Z,7.80
2023-04-18T09:42:28.898Z,7.90
2023-04-18T09:45:07.563Z,7.90
2023-04-18T09:47:36.240Z,8.10
2023-04-18T09:50:08.428Z,8.20
2023-04-18T09:52:37.957Z,8.20
2023-04-18T09:55:07.407Z,8.50
2023-04-18T09:57:35.906Z,8.80
2023-04-18T10:00:24.667Z,8.80
2023-04-18T10:03:04.955Z,9.00
2023-04-18T10:05:34.018Z,8.70
2023-04-18T10:08:00.945Z,8.80
2023-04-18T10:10:27.569Z,8.80
2023-04-18T10:12:56.508Z,8.80
2023-04-18T10:15:26.286Z,9.00
2023-04-18T10:18:05.657Z,8.90
2023-04-18T10:20:34.498Z,8.90
2023-04-18T10:23:37.249Z,8.90
2023-04-18T10:26:05.819Z,9.00
2023-04-18T10:28:54.950Z,9.00
2023-04-18T10:31:23.672Z,9.40
2023-04-18T10:36:28.456Z,9.70
2023-04-18T10:39:00.584Z,9.50
2023-04-18T10:41:29.827Z,9.70
2023-04-18T10:44:24.718Z,10.10
2023-04-18T10:46:51.479Z,10.50
2023-04-18T10:49:27.010Z,10.70
2023-04-18T10:51:58.487Z,10.70
2023-04-18T10:54:52.029Z,10.70
2023-04-18T10:57:18.757Z,11.10
2023-04-18T10:59:49.847Z,11.40
2023-04-18T11:02:32.208Z,11.50
2023-04-18T11:05:00.608Z,11.40
2023-04-18T11:07:33.912Z,11.60
2023-04-18T11:10:01.392Z,12.00
2023-04-18T11:12:32.869Z,11.20
2023-04-18T11:15:02.548Z,10.80
2023-04-18T11:17:35.577Z,11.00
2023-04-18T11:20:16.980Z,11.20
2023-04-18T11:22:48.563Z,10.90
2023-04-18T11:25:16.313Z,11.10
2023-04-18T11:27:46.134Z,11.60
2023-04-18T11:30:13.946Z,11.70
2023-04-18T11:32:41.034Z,11.70
2023-04-18T11:35:12.815Z,11.80
2023-04-18T11:37:40.921Z,11.20
2023-04-18T11:40:11.522Z,10.90
2023-04-18T11:42:39.678Z,10.70
2023-04-18T11:45:10.053Z,10.90
2023-04-18T11:47:36.707Z,10.50
2023-04-18T11:50:06.577Z,10.30
2023-04-18T11:52:35.363Z,10.20
2023-04-18T11:55:21.703Z,10.10
2023-04-18T11:57:56.239Z,10.10
2023-04-18T12:00:37.433Z,10.30
2023-04-18T12:03:15.450Z,10.60
2023-04-18T12:05:42.728Z,11.10
2023-04-18T12:08:11.410Z,10.40
2023-04-18T12:10:46.033Z,10.30
2023-04-18T12:13:12.891Z,10.40
2023-04-18T12:15:43.299Z,10.50
2023-04-18T12:18:12.029Z,10.70
2023-04-18T12:20:39.888Z,11.20
2023-04-18T12:23:07.822Z,11.20
2023-04-18T12:25:34.964Z,11.30
2023-04-18T12:28:15.698Z,11.20
2023-04-18T12:30:42.589Z,10.90
2023-04-18T12:33:09.487Z,10.60
2023-04-18T12:35:36.590Z,10.60
2023-04-18T12:38:04.552Z,10.70
2023-04-18T12:40:31.271Z,11.00
2023-04-18T12:42:58.016Z,11.10
2023-04-18T12:45:25.056Z,11.10
2023-04-18T12:47:52.920Z,11.30
2023-04-18T12:50:25.288Z,11.20
2023-04-18T12:52:53.535Z,11.50
2023-04-18T12:55:21.148Z,11.50
2023-04-18T12:57:47.864Z,11.50
2023-04-18T13:00:14.767Z,11.60
2023-04-18T13:02:44.041Z,11.60
2023-04-18T13:05:13.104Z,11.60
2023-04-18T13:07:42.497Z,11.50
2023-04-18T13:10:12.088Z,12.00
2023-04-18T13:12:40.561Z,11.90
2023-04-18T13:15:08.448Z,11.70
2023-04-18T13:17:38.599Z,11.50
2023-04-18T13:20:10.483Z,11.70
2023-04-18T13:22:38.017Z,11.80
2023-04-18T13:25:05.650Z,11.70
2023-04-18T13:27:32.345Z,12.00
2023-04-18T13:30:05.061Z,11.60
2023-04-18T13:32:31.817Z,11.30
2023-04-18T13:34:58.588Z,11.50
2023-04-18T13:37:26.611Z,12.00
2023-04-18T13:39:53.203Z,11.80
2023-04-18T13:42:20.297Z,11.50
2023-04-18T13:44:47.635Z,11.70
2023-04-18T13:47:14.510Z,11.60
2023-04-18T13:49:41.202Z,11.60
2023-04-18T13:52:08.002Z,11.80
2023-04-18T13:54:34.924Z,11.30
2023-04-18T13:57:06.832Z,11.60
2023-04-18T13:59:33.653Z,11.90
2023-04-18T14:02:00.502Z,11.50
2023-04-18T14:04:27.408Z,11.40
2023-04-18T14:06:55.430Z,11.30
2023-04-18T14:09:22.194Z,11.40
2023-04-18T14:11:48.830Z,11.60
2023-04-18T14:14:15.575Z,11.50
2023-04-18T14:16:42.161Z,11.40
2023-04-18T14:19:08.848Z,11.10
2023-04-18T14:21:35.818Z,11.30
2023-04-18T14:24:02.435Z,11.60
2023-04-18T14:26:29.281Z,11.60
2023-04-18T14:28:56.499Z,11.30
2023-04-18T14:31:23.381Z,11.30
2023-04-18T14:33:50.141Z,11.30
2023-04-18T14:36:17.179Z,11.50
2023-04-18T14:38:48.388Z,11.40
2023-04-18T14:41:15.251Z,11.80
2023-04-18T14:43:41.849Z,11.70
2023-04-18T14:46:13.175Z,11.50
2023-04-18T14:48:39.921Z,11.80
2023-04-18T14:51:07.065Z,11.70
2023-04-18T14:53:34.013Z,12.00
2023-04-18T14:56:00.658Z,11.70
2023-04-18T14:58:27.316Z,11.60
2023-04-18T15:00:53.978Z,11.80
2023-04-18T15:03:20.800Z,12.10
2023-04-18T15:05:48.852Z,12.40
2023-04-18T15:08:16.044Z,12.20
2023-04-18T15:10:42.784Z,11.90
2023-04-18T15:13:10.867Z,11.80
2023-04-18T15:15:39.481Z,11.40
2023-04-18T15:18:07.763Z,11.30
2023-04-18T15:20:36.004Z,11.40
2023-04-18T15:23:03.032Z,11.10
2023-04-18T15:25:30.430Z,10.70
2023-04-18T15:27:58.208Z,10.60
2023-04-18T15:30:25.417Z,10.70
2023-04-18T15:32:53.764Z,11.00
2023-04-18T15:35:20.699Z,11.10
2023-04-18T15:37:47.577Z,11.10
2023-04-18T15:40:16.302Z,11.20
2023-04-18T15:42:43.579Z,11.00
2023-04-18T15:45:10.854Z,11.20
2023-04-18T15:47:38.819Z,11.00
2023-04-18T15:50:06.896Z,10.70
2023-04-18T15:52:33.742Z,10.80
2023-04-18T15:55:00.841Z,10.90
2023-04-18T15:57:29.558Z,11.10
2023-04-18T15:59:56.610Z,11.10
2023-04-18T16:02:23.334Z,10.80
2023-04-18T16:04:50.448Z,10.70
2023-04-18T16:07:17.120Z,10.60
2023-04-18T16:09:43.774Z,10.60
2023-04-18T16:12:10.442Z,10.60
2023-04-18T16:14:37.503Z,10.60
2023-04-18T16:17:04.151Z,10.70
2023-04-18T16:19:33.913Z,10.70
2023-04-18T16:22:02.769Z,10.60
2023-04-18T16:24:30.079Z,10.60
2023-04-18T16:26:56.773Z,10.60
2023-04-18T16:29:23.710Z,10.60
2023-04-18T16:31:51.617Z,10.70
2023-04-18T16:34:18.515Z,10.80
2023-04-18T16:36:45.174Z,10.70
2023-04-18T16:39:11.956Z,10.70
2023-04-18T16:41:38.652Z,10.50
2023-04-18T16:44:05.365Z,10.60
2023-04-18T16:46:32.333Z,10.50
2023-04-18T16:48:59.373Z,10.50
2023-04-18T16:51:26.782Z,10.50
2023-04-18T16:53:53.433Z,10.40
2023-04-18T16:56:20.213Z,10.30
2023-04-18T16:58:46.872Z,10.30
2023-04-18T17:01:13.588Z,10.40
2023-04-18T17:03:40.833Z,10.40
2023-04-18T17:06:07.585Z,10.40
2023-04-18T17:08:34.262Z,10.30
2023-04-18T17:11:02.161Z,10.30
2023-04-18T17:13:31.269Z,10.30
2023-04-18T17:15:58.153Z,10.20
2023-04-18T17:18:25.542Z,10.10
2023-04-18T17:20:52.353Z,10.10
2023-04-18T17:23:19.178Z,10.10
2023-04-18T17:25:46.388Z,10.10
2023-04-18T17:28:13.828Z,10.00
2023-04-18T17:30:41.808Z,10.00
2023-04-18T17:33:09.646Z,10.00
2023-04-18T17:35:36.289Z,10.00
2023-04-18T17:38:03.277Z,10.00
2023-04-18T17:40:29.937Z,9.90
2023-04-18T17:42:56.635Z,9.90
2023-04-18T17:45:23.913Z,9.90
2023-04-18T17:47:50.798Z,9.80
2023-04-18T17:50:17.709Z,9.80
2023-04-18T17:52:46.194Z,9.80
2023-04-18T17:55:12.962Z,9.80
2023-04-18T17:57:41.674Z,9.80
2023-04-18T18:00:11.655Z,9.70
2023-04-18T18:02:42.620Z,9.60
2023-04-18T18:05:13.769Z,9.60
2023-04-18T18:07:43.031Z,9.60
2023-04-18T18:10:10.691Z,9.50
2023-04-18T18:12:38.076Z,9.50
2023-04-18T18:15:05.517Z,9.50
2023-04-18T18:17:32.190Z,9.50
2023-04-18T18:19:59.057Z,9.60
2023-04-18T18:22:26.162Z,9.70
2023-04-18T18:24:53.057Z,9.70
2023-04-18T18:27:22.980Z,9.60
2023-04-18T18:29:50.297Z,9.70
2023-04-18T18:32:17.039Z,9.60
2023-04-18T18:34:43.682Z,9.60
2023-04-18T18:37:10.306Z,9.60
2023-04-18T18:39:37.306Z,9.60
2023-04-18T18:42:03.968Z,9.60
2023-04-18T18:44:30.659Z,9.50
2023-04-18T18:46:58.644Z,9.50
2023-04-18T18:49:26.394Z,9.60
2023-04-18T18:51:53.355Z,9.50
2023-04-18T18:54:20.175Z,9.50
2023-04-18T18:56:46.938Z,9.60
2023-04-18T18:59:13.880Z,9.50
2023-04-18T19:01:40.968Z,9.60
2023-04-18T19:04:07.991Z,9.60
2023-04-18T19:06:34.874Z,9.60
2023-04-18T19:09:01.844Z,9.60
2023-04-18T19:11:29.104Z,9.70
2023-04-18T19:13:55.734Z,9.70
2023-04-18T19:16:22.636Z,9.70
2023-04-18T19:18:50.377Z,9.80
2023-04-18T19:21:17.465Z,9.80
2023-04-18T19:23:44.217Z,9.70
2023-04-18T19:26:11.042Z,9.80
2023-04-18T19:28:37.966Z,9.80
2023-04-18T19:31:04.957Z,9.90
2023-04-18T19:33:31.697Z,9.90
2023-04-18T19:35:58.639Z,9.80
2023-04-18T19:38:25.602Z,9.90
2023-04-18T19:40:52.310Z,9.90
2023-04-18T19:43:19.027Z,9.90
2023-04-18T19:45:45.843Z,9.80
2023-04-18T19:48:12.466Z,9.80
2023-04-18T19:50:40.591Z,9.80
2023-04-18T19:53:07.443Z,9.80
2023-04-18T19:55:34.200Z,9.80
2023-04-18T19:58:00.873Z,9.80
2023-04-18T20:00:28.283Z,9.80
2023-04-18T20:02:55.126Z,9.80
2023-04-18T20:05:22.200Z,9.80
2023-04-18T20:07:48.990Z,9.80
2023-04-18T20:10:15.827Z,9.80
2023-04-18T20:12:42.456Z,9.80
2023-04-18T20:15:09.548Z,9.80
2023-04-18T20:17:36.648Z,9.90
2023-04-18T20:20:04.396Z,9.80
2023-04-18T20:22:32.167Z,9.90
2023-04-18T20:24:58.787Z,9.90
2023-04-18T20:27:25.444Z,9.90
2023-04-18T20:29:52.478Z,9.90
2023-04-18T20:32:19.205Z,9.90
2023-04-18T20:34:46.596Z,9.80
2023-04-18T20:37:18.608Z,9.90
2023-04-18T20:39:45.666Z,9.90
2023-04-18T20:42:14.477Z,9.90
2023-04-18T20:44:46.547Z,9.90
2023-04-18T20:47:15.272Z,9.80
2023-04-18T20:49:42.695Z,9.80
2023-04-18T20:52:14.133Z,9.80
2023-04-18T20:54:41.716Z,9.80
2023-04-18T20:57:08.456Z,9.80
2023-04-18T20:59:35.194Z,9.80
2023-04-18T21:02:02.078Z,9.80
2023-04-18T21:04:29.612Z,9.80
2023-04-18T21:06:56.615Z,9.80
2023-04-18T21:09:23.236Z,9.80
2023-04-18T21:11:50.040Z,9.70
2023-04-18T21:14:17.129Z,9.70
2023-04-18T21:16:44.415Z,9.90
2023-04-18T21:19:11.374Z,9.80
2023-04-18T21:21:37.969Z,9.70
2023-04-18T21:24:05.541Z,9.80
2023-04-18T21:26:32.191Z,9.80
2023-04-18T21:29:01.582Z,9.80
2023-04-18T21:31:31.912Z,9.80
2023-04-18T21:34:00.901Z,9.70
2023-04-18T21:36:28.645Z,9.80
2023-04-18T21:38:56.261Z,9.80
2023-04-18T21:41:23.649Z,9.80
2023-04-18T21:43:51.235Z,9.80
2023-04-18T21:46:18.518Z,9.80
2023-04-18T21:48:46.886Z,9.80
2023-04-18T21:51:16.505Z,9.80
2023-04-18T21:53:43.355Z,9.80
2023-04-18T21:56:10.815Z,9.90
2023-04-18T21:58:37.725Z,9.80
2023-04-18T22:01:04.468Z,9.90
2023-04-18T22:03:33.282Z,9.80
2023-04-18T22:06:01.153Z,9.80
2023-04-18T22:08:28.158Z,9.80
2023-04-18T22:10:57.452Z,9.80
2023-04-18T22:13:25.539Z,9.80
2023-04-18T22:15:52.293Z,9.80
2023-04-18T22:18:19.181Z,9.80
2023-04-18T22:20:49.184Z,9.80
2023-04-18T22:23:15.829Z,9.80
2023-04-18T22:25:42.424Z,9.80
2023-04-18T22:28:09.025Z,9.80
2023-04-18T22:30:35.831Z,9.80
2023-04-18T22:33:03.006Z,9.80
2023-04-18T22:35:29.731Z,9.80
2023-04-18T22:37:56.597Z,9.80
2023-04-18T22:40:23.298Z,9.80
2023-04-18T22:42:51.743Z,9.80
2023-04-18T22:45:19.286Z,9.80
2023-04-18T22:47:46.578Z,9.80
2023-04-18T22:50:14.481Z,9.80
2023-04-18T22:52:41.292Z,9.80
2023-04-18T22:55:08.979Z,9.80
2023-04-18T22:57:35.938Z,9.70
2023-04-18T23:00:04.637Z,9.70
2023-04-18T23:02:31.395Z,9.80
2023-04-18T23:04:59.667Z,9.70
2023-04-18T23:07:26.480Z,9.70
2023-04-18T23:09:53.267Z,9.80
2023-04-18T23:12:19.917Z,9.70
2023-04-18T23:14:47.341Z,9.70
2023-04-18T23:17:13.976Z,9.70
2023-04-18T23:19:40.776Z,9.70
2023-04-18T23:22:07.367Z,9.70
2023-04-18T23:24:34.090Z,9.80
2023-04-18T23:27:01.441Z,9.70
2023-04-18T23:29:28.044Z,9.70
2023-04-18T23:31:54.711Z,9.60
2023-04-18T23:34:21.355Z,9.50
2023-04-18T23:36:47.997Z,9.50
2023-04-18T23:39:14.631Z,9.40
2023-04-18T23:41:41.308Z,9.40
2023-04-18T23:44:07.903Z,9.30
2023-04-18T23:46:36.363Z,9.30
2023-04-18T23:49:03.549Z,9.30
2023-04-18T23:51:30.909Z,9.30
2023-04-18T23:53:57.582Z,9.20
2023-04-18T23:56:24.238Z,9.20
2023-04-18T23:58:50.900Z,9.20
